Flight VSA110F

  • Submitted By: Kevin Harkins
  • Departure Airport: Baltimore–Washington International KBWI (KBWI)
  • Arrival Airport: Bradley International (KBDL)
  • Aircraft: 1900C/D (N19002)
  • Flight Time: 01.25
  • Date Submitted: 10/15/2016
  • Route: DIRECT, PILOTS OPTION.
  • Status: Accepted
Flight Details
Gross Revenue:
(8101 load / $ 50.00 per unit
$ 405,050.00
Fuel Cost:
(327 fuel used @ 5.1 / unit)
$ 1,667.70

Flight Details

  • Upper FWD Main: -
  • Upper AFT Main: -
  • Lower FWD: -
  • Lower AFT: -
  • WX Engine used: FS WX
  • Flight Type IFR/VFR: IFR
  • Number of Flight Crew: 1
  • Upper Main Center Single : 8500 Lbs of loose mixed
  • A380 UPR MAIN SGL: -
  • A380 MID MAIN SGL: -
  • A380 LWR DECK SGL: -

Additional Log Information:

View Log

[11:30] Aircraft Title - B1900C Frontier
[11:30] Aircraft Model - 190
[11:30] Flight Number VSA110F
[11:30] Departure KBWI
[11:30] Destination KBDL
[11:30] Boarding
[11:33] Simulator Paused
[11:33] Simulator Un-Paused
[11:41] Pushing Back
[11:43] Taxiing to Runway
[11:48] Taking Off
[11:48] Taking Off
[11:48] 117kts
[11:48] pitch angle 10 degrees
[11:48] 942 (lbs) of fuel onboard
[11:49] Climbing
[12:01] TOC Reached
[12:01] Cruise 19000
[12:24] TOD Reached
[12:24] Descending
[12:35] On Approach
[12:52] Landing Rate -492fpm
[12:52] 658 (lbs) of fuel onboard
[12:52] pitch angle 6 degrees
[12:53] Taxiing to Gate
[12:55] Arrived
[12:56] Max Sim Rate: 1x
[12:56] kACARS_Free Version 1.0.1.1

Comments

Commenter Comment
Kevin Harkins KBWI /KBDL 1999D 101516 ONLY LOAD WAS PASSINGER BAGAGE flt # VSA 011F WX KBWI 151554Z 14003KT 10SM FEW040 17/07 A3041 RMK AO2 SLP298 T01670072 $ WX KBDL 151551Z 00000KT 10SM FEW220 FEW250 12/02 A3046 RMK AO2 SLP316 T0117001 FLT PLAN KBWI BAL MXE SBJ CMK KBDL CREW 2
Roy Elliman Pres Kevin , PLEASE,PLEASE fill out the loading stations .

Route Map

Pilots Online

Guests Online